Time;durP1;ratioP1;P1;durP2;ratioP2;P2;SDS_P1;SDS_P2;PMS_P1;PMS_P2;Temp;Humidity;BMP_temperature;BMP_pressure;BME280_temperature;BME280_humidity;BME280_pressure;Samples;Min_cycle;Max_cycle;Signal;HPM_P1;HPM_P2
2021/07/30 00:00:25;;;;;;;5.10;2.17;;;19.20;66.80;;;;;;4999565;28;20042;-68
2021/07/30 00:02:50;;;;;;;7.97;2.70;;;19.20;67.10;;;;;;4998329;28;20041;-68
2021/07/30 00:05:16;;;;;;;6.10;2.63;;;19.20;67.20;;;;;;5000039;28;20088;-68
2021/07/30 00:07:44;;;;;;;7.43;2.67;;;19.30;67.00;;;;;;4996949;28;20081;-68
2021/07/30 00:10:10;;;;;;;7.97;2.25;;;19.30;66.80;;;;;;5000108;28;20038;-67
2021/07/30 00:12:38;;;;;;;9.48;2.50;;;19.30;66.60;;;;;;5000000;28;20136;-67
2021/07/30 00:15:07;;;;;;;7.28;2.58;;;19.20;67.10;;;;;;4998502;28;20041;-67
2021/07/30 00:17:33;;;;;;;6.75;2.67;;;19.20;67.20;;;;;;4998365;28;20122;-67
2021/07/30 00:20:05;;;;;;;9.43;2.40;;;19.20;67.10;;;;;;4980724;28;20041;-67
2021/07/30 00:22:30;;;;;;;6.57;2.83;;;19.20;67.00;;;;;;4984844;28;20041;-67
2021/07/30 00:24:56;;;;;;;7.60;3.40;;;19.10;66.80;;;;;;4999458;28;20038;-67
2021/07/30 00:27:22;;;;;;;6.07;2.33;;;18.90;67.00;;;;;;4998496;28;20048;-67
2021/07/30 00:29:48;;;;;;;4.22;2.38;;;18.80;67.80;;;;;;4999583;28;20045;-67
2021/07/30 00:32:13;;;;;;;8.88;2.33;;;18.80;68.20;;;;;;4997590;28;20034;-67
2021/07/30 00:34:39;;;;;;;7.60;2.53;;;19.00;68.20;;;;;;4999016;28;20053;-67
2021/07/30 00:37:05;;;;;;;4.75;2.67;;;19.00;67.50;;;;;;4999586;28;20050;-67
2021/07/30 00:39:30;;;;;;;7.72;2.55;;;18.90;67.80;;;;;;4986210;28;20089;-68
2021/07/30 00:41:56;;;;;;;7.28;2.85;;;18.90;68.10;;;;;;4997796;28;20041;-68
2021/07/30 00:44:22;;;;;;;5.63;2.58;;;18.90;68.10;;;;;;4999742;28;20541;-68
2021/07/30 00:46:48;;;;;;;4.32;2.03;;;19.00;68.20;;;;;;4996719;28;20030;-67
2021/07/30 00:49:15;;;;;;;6.93;2.25;;;19.10;68.00;;;;;;4982528;28;20656;-68
2021/07/30 00:51:41;;;;;;;8.20;3.30;;;19.20;67.60;;;;;;4999949;28;20046;-68
2021/07/30 00:54:07;;;;;;;6.10;2.70;;;19.10;67.30;;;;;;4998233;28;20037;-68
2021/07/30 00:56:33;;;;;;;7.03;3.03;;;19.00;67.70;;;;;;4997825;28;20046;-67
2021/07/30 00:58:59;;;;;;;7.40;2.70;;;19.00;68.10;;;;;;4998143;28;20034;-67
2021/07/30 01:01:25;;;;;;;8.98;2.28;;;19.00;67.80;;;;;;4985124;28;20097;-68
2021/07/30 01:03:51;;;;;;;10.05;3.33;;;19.00;67.90;;;;;;4985059;28;20038;-68
2021/07/30 01:06:17;;;;;;;7.43;2.40;;;19.00;67.80;;;;;;4980416;28;20559;-68
2021/07/30 01:08:43;;;;;;;6.68;2.35;;;19.00;68.00;;;;;;4999773;28;20042;-67
2021/07/30 01:11:09;;;;;;;4.47;2.20;;;19.00;68.10;;;;;;4998574;28;20042;-68
2021/07/30 01:13:34;;;;;;;7.63;2.60;;;19.10;68.10;;;;;;4997717;28;20101;-67
2021/07/30 01:16:00;;;;;;;4.65;2.38;;;19.20;67.80;;;;;;4997957;28;20118;-67
2021/07/30 01:18:26;;;;;;;10.77;3.45;;;19.20;67.60;;;;;;4998807;28;20515;-67
2021/07/30 01:21:23;;;;;;;7.90;2.45;;;19.00;67.20;;;;;;4999707;28;20391;-68
2021/07/30 01:23:49;;;;;;;7.57;2.55;;;18.60;67.70;;;;;;4990763;28;20058;-68
2021/07/30 01:26:16;;;;;;;6.80;2.60;;;18.40;69.10;;;;;;4998135;28;20073;-68
2021/07/30 01:28:42;;;;;;;8.45;2.70;;;18.50;69.60;;;;;;4996862;28;20057;-67
2021/07/30 01:31:08;;;;;;;7.00;2.75;;;18.60;69.40;;;;;;4997809;28;20052;-68
2021/07/30 01:33:34;;;;;;;7.95;3.10;;;18.70;69.00;;;;;;4997792;28;20045;-68
2021/07/30 01:36:00;;;;;;;7.47;2.92;;;18.80;68.30;;;;;;4986008;28;20041;-68
2021/07/30 01:38:26;;;;;;;9.45;3.15;;;18.70;68.50;;;;;;4997654;28;20053;-68
2021/07/30 01:40:54;;;;;;;14.45;4.05;;;18.70;68.60;;;;;;4996381;28;20050;-68
2021/07/30 01:43:20;;;;;;;6.65;2.95;;;18.70;68.40;;;;;;4997847;28;20037;-67
2021/07/30 01:45:46;;;;;;;8.90;2.97;;;18.60;68.60;;;;;;4997330;28;20041;-68
2021/07/30 01:48:12;;;;;;;17.63;4.32;;;18.50;68.90;;;;;;4981491;28;20371;-67
2021/07/30 01:50:37;;;;;;;5.80;2.78;;;18.50;68.70;;;;;;4997175;28;20044;-68
2021/07/30 01:53:03;;;;;;;7.68;3.53;;;18.40;69.50;;;;;;4997703;28;20061;-68
2021/07/30 01:55:29;;;;;;;5.72;2.78;;;18.40;69.80;;;;;;4997126;28;20461;-68
2021/07/30 01:57:54;;;;;;;6.45;2.75;;;18.40;69.80;;;;;;4996247;28;20054;-68
2021/07/30 02:00:20;;;;;;;7.88;2.92;;;18.50;69.80;;;;;;4982156;28;20056;-68
2021/07/30 02:02:47;;;;;;;7.78;3.53;;;18.60;69.40;;;;;;4997986;28;20806;-68
2021/07/30 02:05:13;;;;;;;8.57;4.35;;;18.60;69.00;;;;;;4984384;28;20038;-68
2021/07/30 02:07:39;;;;;;;8.02;3.83;;;18.60;68.60;;;;;;4996839;28;20096;-68
2021/07/30 02:10:06;;;;;;;7.32;2.67;;;18.50;68.80;;;;;;4997987;28;20128;-68
2021/07/30 02:14:14;;;;;;;6.05;3.10;;;18.50;69.40;;;;;;4997360;28;20061;-67
2021/07/30 02:15:19;;;;;;;6.93;2.88;;;18.60;69.40;;;;;;4997900;28;20884;-68
2021/07/30 02:17:44;;;;;;;7.53;3.15;;;18.70;69.20;;;;;;4997280;28;20072;-67
2021/07/30 02:20:10;;;;;;;8.45;3.40;;;18.80;69.00;;;;;;4997076;28;20068;-68
2021/07/30 02:22:36;;;;;;;8.80;2.70;;;18.80;68.60;;;;;;4997891;28;20088;-68
2021/07/30 02:25:02;;;;;;;6.45;3.08;;;18.80;68.80;;;;;;4998141;28;20038;-67
2021/07/30 02:27:28;;;;;;;4.65;2.83;;;18.80;68.60;;;;;;5000553;28;20084;-67
2021/07/30 02:29:54;;;;;;;5.90;3.17;;;18.80;69.20;;;;;;5002778;28;20038;-68
2021/07/30 02:32:20;;;;;;;7.47;3.45;;;18.80;68.70;;;;;;4998845;28;21251;-68
2021/07/30 02:34:45;;;;;;;5.13;2.53;;;18.80;68.80;;;;;;5000714;28;20111;-67
2021/07/30 02:37:11;;;;;;;8.63;3.78;;;18.80;68.70;;;;;;5001784;28;20038;-68
2021/07/30 02:39:37;;;;;;;7.75;3.60;;;18.80;68.50;;;;;;4984389;28;20085;-67
2021/07/30 02:42:03;;;;;;;7.75;3.58;;;18.80;68.80;;;;;;4988190;28;20087;-68
2021/07/30 02:44:30;;;;;;;6.72;3.10;;;18.80;68.60;;;;;;5002360;28;20088;-68
2021/07/30 02:46:56;;;;;;;6.72;3.50;;;19.00;68.70;;;;;;5002145;28;20043;-68
2021/07/30 02:49:22;;;;;;;10.15;3.85;;;19.00;68.40;;;;;;4985260;28;20033;-67
2021/07/30 02:51:48;;;;;;;8.38;3.60;;;19.10;68.00;;;;;;5000851;28;20072;-68
2021/07/30 02:54:13;;;;;;;8.55;4.35;;;19.10;67.90;;;;;;4987503;28;20045;-67
2021/07/30 02:56:39;;;;;;;11.85;4.63;;;19.00;67.70;;;;;;5001160;28;20045;-68
2021/07/30 02:59:05;;;;;;;9.55;4.82;;;18.80;67.50;;;;;;5000585;28;20041;-67
2021/07/30 03:01:31;;;;;;;6.22;3.10;;;18.70;67.80;;;;;;4986289;28;20046;-68
2021/07/30 03:03:57;;;;;;;7.35;3.70;;;18.60;68.50;;;;;;5000438;28;22441;-68
2021/07/30 03:06:23;;;;;;;15.38;4.80;;;18.60;68.90;;;;;;4999555;28;20052;-68
2021/07/30 03:08:48;;;;;;;10.57;4.47;;;18.60;68.50;;;;;;4999524;28;20037;-67
2021/07/30 03:11:14;;;;;;;8.40;4.47;;;18.60;68.60;;;;;;4967621;28;20107;-68
2021/07/30 03:13:40;;;;;;;8.43;4.78;;;18.50;68.80;;;;;;4999021;28;20418;-68
2021/07/30 03:16:06;;;;;;;7.30;3.65;;;18.40;68.90;;;;;;5000407;28;20084;-67
2021/07/30 03:18:32;;;;;;;8.80;3.80;;;18.30;69.40;;;;;;4999215;28;20386;-68
2021/07/30 03:20:58;;;;;;;9.90;4.00;;;18.10;69.70;;;;;;4986166;28;20035;-67
2021/07/30 03:23:24;;;;;;;9.02;4.72;;;17.90;70.40;;;;;;5000670;28;20066;-67
2021/07/30 03:25:50;;;;;;;6.55;3.67;;;17.90;70.60;;;;;;5000800;28;20375;-67
2021/07/30 03:28:16;;;;;;;8.60;4.53;;;17.80;70.90;;;;;;4998925;28;20574;-67
2021/07/30 03:30:45;;;;;;;12.48;5.75;;;17.70;71.10;;;;;;5000513;28;20042;-68
2021/07/30 03:33:11;;;;;;;10.00;4.78;;;17.60;71.20;;;;;;4983054;28;20042;-68
2021/07/30 03:35:37;;;;;;;7.95;3.92;;;17.40;71.50;;;;;;4997210;28;20080;-68
2021/07/30 03:38:03;;;;;;;5.53;3.40;;;17.40;72.50;;;;;;4999648;28;20448;-68
2021/07/30 03:40:29;;;;;;;7.07;3.97;;;17.50;72.90;;;;;;5000204;28;20048;-68
2021/07/30 03:42:55;;;;;;;6.85;4.22;;;17.80;72.60;;;;;;4997698;28;20041;-67
2021/07/30 03:45:21;;;;;;;9.93;4.63;;;18.00;71.70;;;;;;4999695;28;20044;-68
2021/07/30 03:47:48;;;;;;;11.88;4.20;;;18.00;71.10;;;;;;5000697;28;20046;-68
2021/07/30 03:50:13;;;;;;;6.28;3.47;;;18.00;71.20;;;;;;4971489;28;20038;-67
2021/07/30 03:52:39;;;;;;;7.15;4.60;;;18.10;71.40;;;;;;4999933;28;20538;-68
2021/07/30 03:55:06;;;;;;;9.95;5.07;;;18.20;71.10;;;;;;4998759;28;20038;-68
2021/07/30 03:57:32;;;;;;;10.27;5.20;;;18.10;70.80;;;;;;4998992;28;20042;-68
2021/07/30 03:59:58;;;;;;;12.18;5.65;;;17.70;70.60;;;;;;4998527;28;20053;-68
2021/07/30 04:02:23;;;;;;;11.70;5.85;;;17.20;71.40;;;;;;4997877;28;20410;-68
2021/07/30 04:04:49;;;;;;;9.73;5.13;;;16.70;72.20;;;;;;4998880;28;20037;-68
2021/07/30 04:07:15;;;;;;;13.20;5.47;;;16.20;73.40;;;;;;5000118;28;20050;-68
2021/07/30 04:09:41;;;;;;;12.55;6.15;;;15.90;75.10;;;;;;5000554;28;20107;-68
2021/07/30 04:12:08;;;;;;;11.48;6.35;;;15.50;76.10;;;;;;4998928;28;20057;-68
2021/07/30 04:14:34;;;;;;;16.95;6.35;;;15.30;77.20;;;;;;4997418;28;20434;-68
2021/07/30 04:17:00;;;;;;;13.48;6.00;;;15.00;78.20;;;;;;5000290;28;20441;-67
2021/07/30 04:19:26;;;;;;;13.68;7.38;;;14.90;79.80;;;;;;5000764;28;20055;-68
2021/07/30 04:21:52;;;;;;;22.88;7.70;;;14.80;80.90;;;;;;4985043;28;20046;-67
2021/07/30 04:24:18;;;;;;;13.50;5.97;;;14.70;81.40;;;;;;4998395;28;20069;-68
2021/07/30 04:26:44;;;;;;;15.02;7.03;;;14.60;82.50;;;;;;4998569;28;20490;-67
2021/07/30 04:29:10;;;;;;;16.60;7.28;;;14.60;82.70;;;;;;4998642;28;20101;-67
2021/07/30 04:31:40;;;;;;;9.27;5.00;;;14.60;82.90;;;;;;4999972;28;20053;-67
2021/07/30 04:34:09;;;;;;;14.48;6.18;;;14.50;84.60;;;;;;4998291;28;20045;-67
2021/07/30 04:36:35;;;;;;;11.27;5.70;;;14.70;85.00;;;;;;4998390;28;20494;-67
2021/07/30 04:39:01;;;;;;;8.65;4.75;;;14.90;83.90;;;;;;4998666;28;20121;-68
2021/07/30 04:41:27;;;;;;;7.82;4.38;;;15.30;84.00;;;;;;4997377;28;20045;-68
2021/07/30 04:43:53;;;;;;;7.60;4.43;;;15.80;83.20;;;;;;4996602;28;20050;-68
2021/07/30 04:46:19;;;;;;;9.13;4.30;;;16.30;82.10;;;;;;4997751;28;20045;-68
2021/07/30 04:48:46;;;;;;;11.10;5.28;;;16.70;80.60;;;;;;4998219;28;20042;-68
2021/07/30 04:51:12;;;;;;;11.30;5.50;;;17.10;79.40;;;;;;4999502;28;20046;-68
2021/07/30 04:53:38;;;;;;;8.45;3.63;;;17.20;78.20;;;;;;4997631;28;20041;-68
2021/07/30 04:56:05;;;;;;;11.10;4.95;;;17.30;78.00;;;;;;4998424;28;20117;-67
2021/07/30 04:58:31;;;;;;;7.65;3.97;;;17.40;77.40;;;;;;4998752;28;20219;-68
2021/07/30 05:00:57;;;;;;;9.15;4.88;;;17.60;77.40;;;;;;4998024;28;20453;-68
2021/07/30 05:03:22;;;;;;;8.13;4.13;;;17.70;76.80;;;;;;4998811;28;20041;-67
2021/07/30 05:05:48;;;;;;;8.32;4.28;;;17.80;76.50;;;;;;4998799;28;20042;-67
2021/07/30 05:08:15;;;;;;;5.53;3.72;;;17.90;77.00;;;;;;4981092;28;20080;-67
2021/07/30 05:10:47;;;;;;;13.13;5.80;;;17.80;76.50;;;;;;4998965;28;20066;-67
2021/07/30 05:13:13;;;;;;;10.93;4.38;;;17.80;76.10;;;;;;4997138;28;20054;-67
2021/07/30 05:15:38;;;;;;;10.80;4.90;;;17.80;76.50;;;;;;4999071;28;20056;-67
2021/07/30 05:18:06;;;;;;;8.38;5.05;;;17.70;76.10;;;;;;4998013;28;20042;-67
2021/07/30 05:20:38;;;;;;;11.75;5.68;;;17.70;76.30;;;;;;4996742;28;20042;-68
2021/07/30 05:23:03;;;;;;;12.10;5.50;;;17.70;76.10;;;;;;4998259;28;20037;-66
2021/07/30 05:25:29;;;;;;;8.77;3.92;;;17.70;76.10;;;;;;5000759;28;20037;-67
2021/07/30 05:27:55;;;;;;;8.80;4.72;;;17.90;76.20;;;;;;4998164;28;20045;-68
2021/07/30 05:30:25;;;;;;;10.93;4.47;;;17.90;76.00;;;;;;4998076;28;20072;-67
2021/07/30 05:32:50;;;;;;;8.57;5.05;;;18.10;75.70;;;;;;4999108;28;20048;-67
2021/07/30 05:35:16;;;;;;;8.57;4.45;;;18.00;75.50;;;;;;4998509;28;20038;-68
2021/07/30 05:37:42;;;;;;;10.52;4.50;;;18.10;75.80;;;;;;4997066;28;20041;-68
2021/07/30 05:40:08;;;;;;;8.27;4.78;;;18.10;75.40;;;;;;4996332;28;20034;-67
2021/07/30 05:42:34;;;;;;;7.47;4.70;;;18.20;75.20;;;;;;4997051;28;20682;-67
2021/07/30 05:45:00;;;;;;;11.15;6.50;;;18.20;75.30;;;;;;4997931;28;20040;-67
2021/07/30 05:47:27;;;;;;;8.02;4.63;;;18.30;75.00;;;;;;4997961;28;20054;-68
2021/07/30 05:49:54;;;;;;;8.77;4.47;;;18.40;74.90;;;;;;4998142;28;20042;-68
2021/07/30 05:52:20;;;;;;;12.02;5.03;;;18.50;74.70;;;;;;4996484;28;20057;-68
2021/07/30 05:54:45;;;;;;;14.07;5.93;;;18.60;74.60;;;;;;4983861;28;20092;-67
2021/07/30 05:57:11;;;;;;;10.60;4.90;;;18.60;74.30;;;;;;4999284;28;20045;-68
2021/07/30 05:59:37;;;;;;;10.80;5.50;;;18.50;74.90;;;;;;4983848;28;20042;-67
2021/07/30 06:02:03;;;;;;;7.60;3.97;;;18.40;75.10;;;;;;4984427;28;20038;-67
2021/07/30 06:04:28;;;;;;;12.07;5.63;;;18.30;75.50;;;;;;4997809;28;20037;-67
2021/07/30 06:06:54;;;;;;;11.02;5.40;;;18.30;75.90;;;;;;4983566;28;22278;-67
2021/07/30 06:09:20;;;;;;;9.52;4.60;;;18.20;76.10;;;;;;4997310;28;20592;-66
2021/07/30 06:11:46;;;;;;;8.95;5.60;;;18.10;76.50;;;;;;4997758;28;20042;-67
2021/07/30 06:14:12;;;;;;;13.38;7.68;;;18.10;76.80;;;;;;4983360;28;20038;-67
2021/07/30 06:16:37;;;;;;;10.73;6.22;;;17.90;76.70;;;;;;4997045;28;20057;-66
2021/07/30 06:19:04;;;;;;;15.85;6.80;;;17.70;77.40;;;;;;4979620;28;20125;-67
2021/07/30 06:21:32;;;;;;;17.63;6.60;;;17.50;78.00;;;;;;4997529;28;20042;-66
2021/07/30 06:23:59;;;;;;;13.73;5.95;;;17.40;78.60;;;;;;4999611;28;20065;-67
2021/07/30 06:26:25;;;;;;;10.23;5.38;;;17.50;79.00;;;;;;4998172;28;20038;-66
2021/07/30 06:28:51;;;;;;;12.25;6.97;;;17.70;78.90;;;;;;4997913;28;20966;-66
2021/07/30 06:31:16;;;;;;;10.35;4.70;;;17.80;78.50;;;;;;4996765;28;20065;-64
2021/07/30 06:33:42;;;;;;;12.40;6.65;;;17.90;78.70;;;;;;4996164;28;20047;-68
2021/07/30 06:36:08;;;;;;;15.68;7.45;;;18.00;78.00;;;;;;4978474;28;20026;-70
2021/07/30 06:38:33;;;;;;;13.10;5.50;;;17.90;77.90;;;;;;4995389;28;20069;-72
2021/07/30 06:40:59;;;;;;;11.95;5.20;;;17.90;78.40;;;;;;4997690;28;20113;-73
2021/07/30 06:43:25;;;;;;;17.58;6.35;;;18.00;78.40;;;;;;4997506;28;20116;-69
2021/07/30 06:45:51;;;;;;;10.13;5.43;;;18.20;78.10;;;;;;4977788;28;20604;-66
2021/07/30 06:48:16;;;;;;;11.20;6.68;;;18.30;77.80;;;;;;4995724;28;20038;-65
2021/07/30 06:50:44;;;;;;;11.55;5.97;;;18.30;77.90;;;;;;4996462;28;20056;-65
2021/07/30 06:53:10;;;;;;;10.55;5.72;;;18.30;77.80;;;;;;4992862;28;20038;-67
2021/07/30 06:55:35;;;;;;;10.38;4.72;;;18.50;77.60;;;;;;4971047;28;20056;-64
2021/07/30 06:58:01;;;;;;;10.95;5.22;;;18.70;76.90;;;;;;4988847;28;20042;-65
2021/07/30 07:00:27;;;;;;;11.02;4.65;;;19.00;76.40;;;;;;4986957;28;20131;-65
2021/07/30 07:02:52;;;;;;;12.82;5.70;;;19.30;75.60;;;;;;4988289;28;20140;-65
2021/07/30 07:05:20;;;;;;;10.90;4.82;;;19.50;75.00;;;;;;4995908;28;20067;-65
2021/07/30 07:07:45;;;;;;;12.02;4.88;;;19.80;74.10;;;;;;4995467;28;20030;-64
2021/07/30 07:10:12;;;;;;;10.50;5.63;;;20.00;73.50;;;;;;4980972;28;22323;-65
2021/07/30 07:12:38;;;;;;;12.02;4.63;;;20.30;73.20;;;;;;4984779;28;20085;-65
2021/07/30 07:15:04;;;;;;;13.57;5.10;;;20.60;72.30;;;;;;4998178;28;20127;-64
2021/07/30 07:17:30;;;;;;;14.57;5.10;;;20.80;71.70;;;;;;4982321;28;20050;-65
2021/07/30 07:19:55;;;;;;;10.23;5.03;;;20.90;71.60;;;;;;5000940;28;20092;-65
2021/07/30 07:22:21;;;;;;;13.57;5.13;;;21.10;71.00;;;;;;5000199;28;20482;-65
2021/07/30 07:24:47;;;;;;;14.93;5.30;;;21.10;70.60;;;;;;5000150;28;20446;-63
2021/07/30 07:27:13;;;;;;;12.98;5.85;;;21.20;70.20;;;;;;4982637;28;20505;-64
2021/07/30 07:29:38;;;;;;;14.93;5.78;;;21.10;70.10;;;;;;4983314;28;20046;-64
2021/07/30 07:32:04;;;;;;;20.95;11.80;;;21.30;70.30;;;;;;4999407;28;20042;-65
2021/07/30 07:34:30;;;;;;;12.38;5.35;;;21.30;69.70;;;;;;5000221;28;20158;-65
2021/07/30 07:36:56;;;;;;;14.73;4.80;;;21.40;69.10;;;;;;5000407;28;20046;-66
2021/07/30 07:39:22;;;;;;;13.13;5.07;;;21.50;68.80;;;;;;4982278;28;21047;-66
2021/07/30 07:41:47;;;;;;;10.88;4.65;;;21.50;68.40;;;;;;4998401;28;20038;-66
2021/07/30 07:44:15;;;;;;;10.43;5.22;;;21.60;68.20;;;;;;4993426;28;20046;-66
2021/07/30 07:46:41;;;;;;;8.95;4.22;;;21.60;68.00;;;;;;4991017;28;20116;-66
2021/07/30 07:49:07;;;;;;;12.98;4.43;;;21.80;67.90;;;;;;4992532;28;20379;-65
2021/07/30 07:51:34;;;;;;;14.82;4.90;;;22.00;67.80;;;;;;4975729;28;20053;-65
2021/07/30 07:54:00;;;;;;;10.20;4.18;;;22.10;67.30;;;;;;4974655;28;20042;-65
2021/07/30 07:56:26;;;;;;;10.52;4.78;;;22.30;66.80;;;;;;4975895;28;20422;-66
2021/07/30 07:58:52;;;;;;;9.95;4.18;;;22.40;66.20;;;;;;4995582;28;20050;-66
2021/07/30 08:01:17;;;;;;;12.77;4.90;;;22.50;66.10;;;;;;4997599;28;20129;-65
2021/07/30 08:03:44;;;;;;;10.35;4.55;;;22.50;65.70;;;;;;4997653;28;20618;-65
2021/07/30 08:06:18;;;;;;;11.85;4.47;;;22.70;65.70;;;;;;4998975;28;20095;-64
2021/07/30 08:08:45;;;;;;;15.40;4.63;;;22.90;64.90;;;;;;4997138;28;20042;-64
2021/07/30 08:11:11;;;;;;;9.82;4.57;;;23.00;64.50;;;;;;4998357;28;20121;-61
2021/07/30 08:13:37;;;;;;;14.60;4.88;;;23.10;64.10;;;;;;4999268;28;20046;-62
2021/07/30 08:16:03;;;;;;;12.10;5.30;;;23.20;63.80;;;;;;4997559;28;20080;-62
2021/07/30 08:18:29;;;;;;;12.90;4.35;;;23.30;63.80;;;;;;4998310;28;20458;-62
2021/07/30 08:20:55;;;;;;;12.80;5.15;;;23.40;63.40;;;;;;4999316;28;20042;-62
2021/07/30 08:23:21;;;;;;;12.18;5.05;;;23.50;63.40;;;;;;4979750;28;20038;-62
2021/07/30 08:25:47;;;;;;;9.75;4.63;;;23.50;63.30;;;;;;4997642;28;20056;-63
2021/07/30 08:28:13;;;;;;;9.68;4.45;;;23.60;62.90;;;;;;4996706;28;20801;-63
2021/07/30 08:30:43;;;;;;;10.02;3.80;;;23.60;62.80;;;;;;4998538;28;20042;-62
2021/07/30 08:33:09;;;;;;;13.23;4.30;;;23.70;62.60;;;;;;4997726;28;20042;-62
2021/07/30 08:35:35;;;;;;;12.40;4.18;;;23.80;62.30;;;;;;4988028;28;20514;-60
2021/07/30 08:38:01;;;;;;;12.52;4.25;;;23.80;62.50;;;;;;4988641;28;20148;-61
2021/07/30 08:40:31;;;;;;;12.50;4.07;;;24.00;61.90;;;;;;4989845;28;20042;-61
2021/07/30 08:42:58;;;;;;;11.82;4.97;;;24.00;61.60;;;;;;4992365;28;20050;-61
2021/07/30 08:45:24;;;;;;;9.85;4.18;;;24.00;60.80;;;;;;4996399;28;20077;-61
2021/07/30 08:47:51;;;;;;;11.80;4.05;;;23.90;61.00;;;;;;4995815;28;20178;-61
2021/07/30 08:50:17;;;;;;;11.27;4.13;;;23.90;60.90;;;;;;4995798;28;20049;-61
2021/07/30 08:52:44;;;;;;;12.50;4.57;;;23.80;61.10;;;;;;4997872;28;20122;-61
2021/07/30 08:55:12;;;;;;;15.85;5.22;;;23.80;60.90;;;;;;4999015;28;20431;-62
2021/07/30 08:57:42;;;;;;;13.65;4.97;;;23.80;60.90;;;;;;4998264;28;20062;-62
2021/07/30 09:00:13;;;;;;;15.73;5.25;;;23.70;61.00;;;;;;4997516;28;20064;-61
2021/07/30 09:02:39;;;;;;;12.02;5.43;;;23.70;61.30;;;;;;4996434;28;20170;-62
2021/07/30 09:05:24;;;;;;;11.45;3.65;;;23.70;61.40;;;;;;4997419;28;20054;-62
2021/07/30 09:07:50;;;;;;;11.93;4.45;;;23.80;61.00;;;;;;4993037;28;20141;-62
2021/07/30 09:10:48;;;;;;;13.55;4.57;;;23.90;61.10;;;;;;4990333;28;20060;-61
2021/07/30 09:13:18;;;;;;;11.98;4.70;;;23.80;60.70;;;;;;4950632;28;20081;-61
2021/07/30 09:15:47;;;;;;;13.40;4.63;;;23.80;60.30;;;;;;4989102;28;20058;-61
2021/07/30 09:18:28;;;;;;;12.63;4.85;;;23.60;59.70;;;;;;4989770;28;20515;-61
2021/07/30 09:20:54;;;;;;;12.88;5.30;;;23.50;60.20;;;;;;4993102;28;20035;-62
2021/07/30 09:23:20;;;;;;;9.07;4.03;;;23.20;59.60;;;;;;4995555;28;20509;-62
2021/07/30 09:25:46;;;;;;;11.93;4.82;;;23.00;60.00;;;;;;4996551;28;20313;-61
2021/07/30 09:28:12;;;;;;;19.17;5.53;;;22.90;60.80;;;;;;4995316;28;20069;-62
2021/07/30 09:30:38;;;;;;;13.73;5.25;;;22.90;61.00;;;;;;4998236;28;20041;-62
2021/07/30 09:33:05;;;;;;;15.48;5.60;;;23.00;61.20;;;;;;4997948;28;20124;-62
2021/07/30 09:35:57;;;;;;;11.68;4.90;;;23.10;61.20;;;;;;4998619;28;20039;-62
2021/07/30 09:38:23;;;;;;;10.55;4.20;;;23.20;59.90;;;;;;4984541;28;20041;-62
2021/07/30 09:41:10;;;;;;;17.23;5.40;;;23.10;60.00;;;;;;4983114;28;20049;-61
2021/07/30 09:43:38;;;;;;;9.77;4.38;;;22.90;60.20;;;;;;4996366;28;20406;-60
2021/07/30 09:46:15;;;;;;;11.35;4.93;;;22.80;60.40;;;;;;4997479;28;20042;-60
2021/07/30 09:48:51;;;;;;;13.43;4.47;;;22.80;60.50;;;;;;4996120;28;20568;-61
2021/07/30 09:51:17;;;;;;;13.38;4.97;;;22.90;60.30;;;;;;4996928;28;20041;-61
2021/07/30 09:53:47;;;;;;;12.98;5.50;;;22.80;59.90;;;;;;4998739;28;20050;-62
2021/07/30 09:56:14;;;;;;;9.13;4.95;;;22.80;60.70;;;;;;4997203;28;20041;-61
2021/07/30 09:58:46;;;;;;;9.77;4.05;;;22.90;61.20;;;;;;4996716;28;20041;-61
2021/07/30 10:01:17;;;;;;;10.60;3.90;;;23.00;60.90;;;;;;4996709;28;20086;-61
2021/07/30 10:03:45;;;;;;;9.30;4.38;;;23.10;61.10;;;;;;4996799;28;20125;-61
2021/07/30 10:06:14;;;;;;;9.73;5.07;;;23.20;61.30;;;;;;4997163;28;20037;-61
2021/07/30 10:08:41;;;;;;;9.00;4.80;;;23.20;60.00;;;;;;4995965;28;20046;-61
2021/07/30 10:11:11;;;;;;;10.60;4.43;;;23.10;60.30;;;;;;4997216;28;20160;-61
2021/07/30 10:13:47;;;;;;;11.48;4.43;;;23.10;59.80;;;;;;4997839;28;20137;-62
2021/07/30 10:16:18;;;;;;;7.70;3.65;;;23.10;60.10;;;;;;4996281;28;20030;-61
2021/07/30 10:18:45;;;;;;;8.90;3.67;;;23.20;59.50;;;;;;4996396;28;20038;-61
2021/07/30 10:21:15;;;;;;;10.38;4.50;;;23.30;59.40;;;;;;4984081;28;20049;-61
2021/07/30 10:23:48;;;;;;;12.82;4.40;;;23.50;58.20;;;;;;4996531;28;20042;-61
2021/07/30 10:26:16;;;;;;;8.02;4.25;;;23.50;58.20;;;;;;4995991;28;20481;-61
2021/07/30 10:28:42;;;;;;;8.07;3.88;;;23.40;58.40;;;;;;4996240;28;20045;-61
2021/07/30 10:31:10;;;;;;;12.32;5.18;;;23.20;57.70;;;;;;4998257;28;20071;-61
2021/07/30 10:33:40;;;;;;;11.23;4.05;;;22.90;57.30;;;;;;4996171;28;20118;-60
2021/07/30 10:36:41;;;;;;;6.50;3.50;;;22.70;57.10;;;;;;4996910;28;20045;-60
2021/07/30 10:39:12;;;;;;;5.47;2.80;;;22.50;57.50;;;;;;4899828;29;20051;-66
2021/07/30 10:41:39;;;;;;;8.77;3.38;;;22.50;57.50;;;;;;4980528;28;20386;-67
2021/07/30 10:44:07;;;;;;;9.00;4.03;;;22.60;57.10;;;;;;4996918;28;20046;-68
2021/07/30 10:46:33;;;;;;;8.80;3.30;;;22.60;56.50;;;;;;4997194;28;20038;-68
2021/07/30 10:48:58;;;;;;;8.75;3.65;;;22.60;56.00;;;;;;5000813;28;20486;-67
2021/07/30 10:51:28;;;;;;;9.50;4.40;;;22.60;56.30;;;;;;5002054;28;20489;-68
2021/07/30 10:53:57;;;;;;;6.55;2.88;;;22.60;56.20;;;;;;4999926;28;20153;-66
2021/07/30 10:56:22;;;;;;;14.50;3.63;;;22.60;56.30;;;;;;4999762;28;20034;-67
2021/07/30 10:58:56;;;;;;;7.90;3.78;;;22.70;56.70;;;;;;4999868;28;20048;-67
2021/07/30 11:01:27;;;;;;;10.77;3.45;;;22.80;56.90;;;;;;5001462;28;21024;-67
2021/07/30 11:03:53;;;;;;;12.30;4.18;;;22.80;57.00;;;;;;4999772;28;20145;-66
2021/07/30 11:06:26;;;;;;;7.03;3.30;;;22.80;56.30;;;;;;4999311;28;20117;-68
2021/07/30 11:09:04;;;;;;;9.55;3.90;;;22.70;57.20;;;;;;4999762;28;20073;-66
2021/07/30 11:11:50;;;;;;;8.43;3.22;;;22.80;56.60;;;;;;5001510;28;20121;-68
2021/07/30 11:14:17;;;;;;;6.03;3.15;;;22.80;56.40;;;;;;4999193;28;20065;-66
2021/07/30 11:16:57;;;;;;;8.73;2.92;;;22.90;56.10;;;;;;4998742;28;20046;-67
2021/07/30 11:19:24;;;;;;;8.68;2.70;;;22.90;55.60;;;;;;4999567;28;20037;-67
2021/07/30 11:21:50;;;;;;;8.52;3.20;;;22.70;55.00;;;;;;5000374;28;20144;-68
2021/07/30 11:24:17;;;;;;;6.85;3.35;;;22.80;55.50;;;;;;5000307;28;20398;-66
2021/07/30 11:26:43;;;;;;;6.53;3.78;;;22.90;55.80;;;;;;4999132;28;20482;-67
2021/07/30 11:29:11;;;;;;;6.47;3.53;;;23.00;56.30;;;;;;5000486;28;20112;-66
2021/07/30 11:31:49;;;;;;;7.60;3.50;;;23.10;56.80;;;;;;5001074;28;20060;-67
2021/07/30 11:34:15;;;;;;;9.52;3.80;;;23.10;56.60;;;;;;4997903;28;20108;-67
2021/07/30 11:36:49;;;;;;;7.20;2.92;;;23.10;56.60;;;;;;5000037;28;20562;-66
2021/07/30 11:39:15;;;;;;;7.28;3.15;;;23.30;57.10;;;;;;4999303;28;20038;-67
2021/07/30 11:41:49;;;;;;;6.80;2.78;;;23.30;56.80;;;;;;4999437;28;20037;-69
2021/07/30 11:44:15;;;;;;;10.30;2.75;;;23.40;56.50;;;;;;4998587;28;21574;-68
2021/07/30 11:46:40;;;;;;;9.73;2.58;;;23.30;55.90;;;;;;4999657;28;20042;-70
2021/07/30 11:49:08;;;;;;;6.32;2.90;;;23.20;56.20;;;;;;4998296;28;20030;-75
2021/07/30 11:51:40;;;;;;;8.77;3.28;;;23.30;56.40;;;;;;4999005;28;20042;-67
2021/07/30 11:54:06;;;;;;;9.13;2.90;;;23.30;56.70;;;;;;4998314;28;20981;-67
2021/07/30 11:56:42;;;;;;;8.98;3.25;;;23.40;56.50;;;;;;4998292;28;20038;-69
2021/07/30 11:59:07;;;;;;;7.15;2.80;;;23.40;56.90;;;;;;4998808;28;20403;-68
2021/07/30 12:01:33;;;;;;;8.23;3.10;;;23.40;56.20;;;;;;4998973;28;20042;-68
2021/07/30 12:04:07;;;;;;;10.95;3.50;;;23.40;56.40;;;;;;4997223;28;20033;-64
2021/07/30 12:06:40;;;;;;;6.95;3.17;;;23.40;57.20;;;;;;4998331;28;20072;-64
2021/07/30 12:09:09;;;;;;;6.57;3.25;;;23.40;57.50;;;;;;5000112;28;20482;-65
2021/07/30 12:11:36;;;;;;;8.75;4.13;;;23.50;57.30;;;;;;4998595;28;20062;-64
2021/07/30 12:14:04;;;;;;;8.55;3.15;;;23.50;57.20;;;;;;4999644;28;20046;-64
2021/07/30 12:16:31;;;;;;;8.60;2.72;;;23.50;56.90;;;;;;5002172;28;20050;-65
2021/07/30 12:18:56;;;;;;;10.88;3.30;;;23.50;57.40;;;;;;4985045;28;20049;-62
2021/07/30 12:21:22;;;;;;;9.35;3.08;;;23.50;56.50;;;;;;4985463;28;20886;-64
2021/07/30 12:23:48;;;;;;;7.18;3.05;;;23.40;56.10;;;;;;4999150;28;20093;-64
2021/07/30 12:26:37;;;;;;;11.63;3.35;;;23.50;56.10;;;;;;4999120;28;20045;-65
2021/07/30 12:29:04;;;;;;;6.38;2.70;;;23.50;57.00;;;;;;4999813;28;20046;-72
2021/07/30 12:31:34;;;;;;;7.00;2.95;;;23.40;56.20;;;;;;4997338;28;20030;-65
2021/07/30 12:34:19;;;;;;;8.82;3.05;;;23.30;56.40;;;;;;4998744;28;20041;-65
2021/07/30 12:36:46;;;;;;;8.48;2.83;;;23.30;56.60;;;;;;4995136;28;20050;-66
2021/07/30 12:39:11;;;;;;;6.65;2.75;;;23.20;57.00;;;;;;4997016;28;20387;-67
2021/07/30 12:41:38;;;;;;;6.25;2.78;;;23.20;57.50;;;;;;4998315;28;20045;-73
2021/07/30 12:44:10;;;;;;;8.95;3.15;;;23.30;58.70;;;;;;4997295;28;20820;-67